sensor_id;sensor_type;location;lat;lon;timestamp;P1;durP1;ratioP1;P2;durP2;ratioP2
56718;SDS011;42597;40.636;0.278;2023-08-07T00:00:29;4.35;;;1.50;;
56718;SDS011;42597;40.636;0.278;2023-08-07T00:02:55;6.22;;;2.00;;
56718;SDS011;42597;40.636;0.278;2023-08-07T00:05:21;6.22;;;1.85;;
56718;SDS011;42597;40.636;0.278;2023-08-07T00:07:46;3.72;;;1.38;;
56718;SDS011;42597;40.636;0.278;2023-08-07T00:10:12;3.92;;;1.73;;
56718;SDS011;42597;40.636;0.278;2023-08-07T00:12:38;5.50;;;1.50;;
56718;SDS011;42597;40.636;0.278;2023-08-07T00:15:04;2.60;;;1.20;;
56718;SDS011;42597;40.636;0.278;2023-08-07T00:17:30;3.35;;;1.33;;
56718;SDS011;42597;40.636;0.278;2023-08-07T00:19:56;3.90;;;1.40;;
56718;SDS011;42597;40.636;0.278;2023-08-07T00:22:22;6.40;;;2.10;;
56718;SDS011;42597;40.636;0.278;2023-08-07T00:24:47;3.58;;;1.67;;
56718;SDS011;42597;40.636;0.278;2023-08-07T00:27:13;5.97;;;1.50;;
56718;SDS011;42597;40.636;0.278;2023-08-07T00:29:39;6.75;;;1.90;;
56718;SDS011;42597;40.636;0.278;2023-08-07T00:32:05;6.55;;;2.08;;
56718;SDS011;42597;40.636;0.278;2023-08-07T00:34:31;4.55;;;1.90;;
56718;SDS011;42597;40.636;0.278;2023-08-07T00:36:56;3.08;;;1.30;;
56718;SDS011;42597;40.636;0.278;2023-08-07T00:39:22;5.75;;;1.85;;
56718;SDS011;42597;40.636;0.278;2023-08-07T00:41:47;3.92;;;1.45;;
56718;SDS011;42597;40.636;0.278;2023-08-07T00:44:13;8.57;;;1.63;;
56718;SDS011;42597;40.636;0.278;2023-08-07T00:46:38;6.80;;;1.98;;
56718;SDS011;42597;40.636;0.278;2023-08-07T00:49:05;4.50;;;1.48;;
56718;SDS011;42597;40.636;0.278;2023-08-07T00:51:31;3.40;;;1.50;;
56718;SDS011;42597;40.636;0.278;2023-08-07T00:53:57;4.15;;;1.95;;
56718;SDS011;42597;40.636;0.278;2023-08-07T00:56:23;4.95;;;1.98;;
56718;SDS011;42597;40.636;0.278;2023-08-07T00:58:49;5.28;;;1.60;;
56718;SDS011;42597;40.636;0.278;2023-08-07T01:01:15;4.95;;;1.50;;
56718;SDS011;42597;40.636;0.278;2023-08-07T01:03:41;5.30;;;2.15;;
56718;SDS011;42597;40.636;0.278;2023-08-07T01:06:06;3.28;;;1.23;;
56718;SDS011;42597;40.636;0.278;2023-08-07T01:08:32;3.08;;;1.40;;
56718;SDS011;42597;40.636;0.278;2023-08-07T01:11:10;9.30;;;1.92;;
56718;SDS011;42597;40.636;0.278;2023-08-07T01:13:42;9.35;;;1.95;;
56718;SDS011;42597;40.636;0.278;2023-08-07T01:16:13;4.97;;;1.77;;
56718;SDS011;42597;40.636;0.278;2023-08-07T01:18:42;5.38;;;2.55;;
56718;SDS011;42597;40.636;0.278;2023-08-07T01:21:19;3.53;;;1.40;;
56718;SDS011;42597;40.636;0.278;2023-08-07T01:23:46;3.63;;;1.75;;
56718;SDS011;42597;40.636;0.278;2023-08-07T01:26:12;3.83;;;1.70;;
56718;SDS011;42597;40.636;0.278;2023-08-07T01:31:54;4.97;;;1.30;;
56718;SDS011;42597;40.636;0.278;2023-08-07T01:34:21;4.35;;;1.63;;
56718;SDS011;42597;40.636;0.278;2023-08-07T01:36:50;3.08;;;1.67;;
56718;SDS011;42597;40.636;0.278;2023-08-07T01:41:44;5.57;;;1.88;;
56718;SDS011;42597;40.636;0.278;2023-08-07T01:44:12;3.75;;;1.40;;
56718;SDS011;42597;40.636;0.278;2023-08-07T01:46:37;4.22;;;1.70;;
56718;SDS011;42597;40.636;0.278;2023-08-07T01:49:03;3.58;;;1.60;;
56718;SDS011;42597;40.636;0.278;2023-08-07T01:51:28;3.80;;;1.48;;
56718;SDS011;42597;40.636;0.278;2023-08-07T01:53:54;3.83;;;1.63;;
56718;SDS011;42597;40.636;0.278;2023-08-07T01:56:19;4.55;;;1.88;;
56718;SDS011;42597;40.636;0.278;2023-08-07T01:58:45;2.90;;;1.40;;
56718;SDS011;42597;40.636;0.278;2023-08-07T02:01:10;3.33;;;1.42;;
56718;SDS011;42597;40.636;0.278;2023-08-07T02:03:36;2.35;;;1.23;;
56718;SDS011;42597;40.636;0.278;2023-08-07T02:06:01;6.22;;;1.48;;
56718;SDS011;42597;40.636;0.278;2023-08-07T02:08:27;2.35;;;1.13;;
56718;SDS011;42597;40.636;0.278;2023-08-07T02:10:53;4.63;;;2.00;;
56718;SDS011;42597;40.636;0.278;2023-08-07T02:13:18;4.70;;;1.70;;
56718;SDS011;42597;40.636;0.278;2023-08-07T02:15:44;4.82;;;1.70;;
56718;SDS011;42597;40.636;0.278;2023-08-07T02:18:09;4.35;;;1.63;;
56718;SDS011;42597;40.636;0.278;2023-08-07T02:20:35;3.25;;;1.27;;
56718;SDS011;42597;40.636;0.278;2023-08-07T02:23:00;5.93;;;1.60;;
56718;SDS011;42597;40.636;0.278;2023-08-07T02:25:26;5.20;;;1.75;;
56718;SDS011;42597;40.636;0.278;2023-08-07T02:27:52;4.97;;;1.73;;
56718;SDS011;42597;40.636;0.278;2023-08-07T02:30:17;3.92;;;1.70;;
56718;SDS011;42597;40.636;0.278;2023-08-07T02:32:43;4.03;;;1.42;;
56718;SDS011;42597;40.636;0.278;2023-08-07T02:35:10;3.88;;;1.85;;
56718;SDS011;42597;40.636;0.278;2023-08-07T02:37:36;4.80;;;2.05;;
56718;SDS011;42597;40.636;0.278;2023-08-07T02:40:02;4.65;;;1.73;;
56718;SDS011;42597;40.636;0.278;2023-08-07T02:42:27;4.25;;;1.40;;
56718;SDS011;42597;40.636;0.278;2023-08-07T02:44:53;2.78;;;1.38;;
56718;SDS011;42597;40.636;0.278;2023-08-07T02:47:18;3.65;;;1.40;;
56718;SDS011;42597;40.636;0.278;2023-08-07T02:49:44;3.88;;;1.50;;
56718;SDS011;42597;40.636;0.278;2023-08-07T02:52:09;3.95;;;1.73;;
56718;SDS011;42597;40.636;0.278;2023-08-07T02:54:35;3.10;;;1.33;;
56718;SDS011;42597;40.636;0.278;2023-08-07T02:57:00;4.05;;;1.48;;
56718;SDS011;42597;40.636;0.278;2023-08-07T02:59:26;5.22;;;1.88;;
56718;SDS011;42597;40.636;0.278;2023-08-07T03:01:51;4.53;;;1.80;;
56718;SDS011;42597;40.636;0.278;2023-08-07T03:04:17;4.13;;;1.50;;
56718;SDS011;42597;40.636;0.278;2023-08-07T03:06:42;4.03;;;1.88;;
56718;SDS011;42597;40.636;0.278;2023-08-07T03:09:08;3.67;;;1.52;;
56718;SDS011;42597;40.636;0.278;2023-08-07T03:11:33;5.55;;;1.45;;
56718;SDS011;42597;40.636;0.278;2023-08-07T03:13:59;6.40;;;1.83;;
56718;SDS011;42597;40.636;0.278;2023-08-07T03:16:24;5.47;;;1.83;;
56718;SDS011;42597;40.636;0.278;2023-08-07T03:18:50;2.63;;;1.13;;
56718;SDS011;42597;40.636;0.278;2023-08-07T03:21:16;3.63;;;1.20;;
56718;SDS011;42597;40.636;0.278;2023-08-07T03:23:42;4.25;;;1.55;;
56718;SDS011;42597;40.636;0.278;2023-08-07T03:26:08;4.35;;;1.50;;
56718;SDS011;42597;40.636;0.278;2023-08-07T03:28:35;4.32;;;1.42;;
56718;SDS011;42597;40.636;0.278;2023-08-07T03:31:02;3.28;;;1.38;;
56718;SDS011;42597;40.636;0.278;2023-08-07T03:33:28;6.18;;;1.40;;
56718;SDS011;42597;40.636;0.278;2023-08-07T03:35:53;3.67;;;1.35;;
56718;SDS011;42597;40.636;0.278;2023-08-07T03:38:19;6.03;;;1.63;;
56718;SDS011;42597;40.636;0.278;2023-08-07T03:40:44;7.20;;;1.80;;
56718;SDS011;42597;40.636;0.278;2023-08-07T03:43:10;4.07;;;1.50;;
56718;SDS011;42597;40.636;0.278;2023-08-07T03:45:36;3.13;;;1.40;;
56718;SDS011;42597;40.636;0.278;2023-08-07T03:48:01;3.10;;;1.42;;
56718;SDS011;42597;40.636;0.278;2023-08-07T03:50:27;4.57;;;1.65;;
56718;SDS011;42597;40.636;0.278;2023-08-07T03:52:52;4.75;;;1.75;;
56718;SDS011;42597;40.636;0.278;2023-08-07T03:55:18;3.55;;;1.92;;
56718;SDS011;42597;40.636;0.278;2023-08-07T03:57:44;2.95;;;1.33;;
56718;SDS011;42597;40.636;0.278;2023-08-07T04:00:09;4.30;;;1.75;;
56718;SDS011;42597;40.636;0.278;2023-08-07T04:02:36;3.78;;;1.67;;
56718;SDS011;42597;40.636;0.278;2023-08-07T04:05:01;3.63;;;1.38;;
56718;SDS011;42597;40.636;0.278;2023-08-07T04:07:27;3.53;;;1.30;;
56718;SDS011;42597;40.636;0.278;2023-08-07T04:09:53;4.47;;;1.90;;
56718;SDS011;42597;40.636;0.278;2023-08-07T04:12:18;6.82;;;1.73;;
56718;SDS011;42597;40.636;0.278;2023-08-07T04:14:44;4.15;;;1.38;;
56718;SDS011;42597;40.636;0.278;2023-08-07T04:17:09;4.70;;;1.52;;
56718;SDS011;42597;40.636;0.278;2023-08-07T04:19:36;5.25;;;1.75;;
56718;SDS011;42597;40.636;0.278;2023-08-07T04:22:02;6.90;;;1.73;;
56718;SDS011;42597;40.636;0.278;2023-08-07T04:24:27;4.80;;;1.50;;
56718;SDS011;42597;40.636;0.278;2023-08-07T04:26:53;6.38;;;2.45;;
56718;SDS011;42597;40.636;0.278;2023-08-07T04:29:18;5.95;;;1.88;;
56718;SDS011;42597;40.636;0.278;2023-08-07T04:31:44;5.10;;;1.33;;
56718;SDS011;42597;40.636;0.278;2023-08-07T04:34:09;3.05;;;1.55;;
56718;SDS011;42597;40.636;0.278;2023-08-07T04:36:35;4.55;;;1.60;;
56718;SDS011;42597;40.636;0.278;2023-08-07T04:39:00;4.43;;;1.83;;
56718;SDS011;42597;40.636;0.278;2023-08-07T04:41:26;3.90;;;1.88;;
56718;SDS011;42597;40.636;0.278;2023-08-07T04:43:52;4.82;;;1.58;;
56718;SDS011;42597;40.636;0.278;2023-08-07T04:46:17;6.05;;;1.73;;
56718;SDS011;42597;40.636;0.278;2023-08-07T04:48:43;4.53;;;1.63;;
56718;SDS011;42597;40.636;0.278;2023-08-07T04:51:08;7.05;;;1.67;;
56718;SDS011;42597;40.636;0.278;2023-08-07T04:53:34;8.70;;;2.28;;
56718;SDS011;42597;40.636;0.278;2023-08-07T04:56:00;3.80;;;1.80;;
56718;SDS011;42597;40.636;0.278;2023-08-07T04:58:25;6.40;;;1.48;;
56718;SDS011;42597;40.636;0.278;2023-08-07T05:00:54;4.05;;;1.67;;
56718;SDS011;42597;40.636;0.278;2023-08-07T05:03:23;5.88;;;2.15;;
56718;SDS011;42597;40.636;0.278;2023-08-07T05:05:49;5.38;;;2.05;;
56718;SDS011;42597;40.636;0.278;2023-08-07T05:08:16;4.25;;;1.50;;
56718;SDS011;42597;40.636;0.278;2023-08-07T05:10:41;3.65;;;1.48;;
56718;SDS011;42597;40.636;0.278;2023-08-07T05:13:07;5.75;;;1.60;;
56718;SDS011;42597;40.636;0.278;2023-08-07T05:15:33;7.32;;;1.70;;
56718;SDS011;42597;40.636;0.278;2023-08-07T05:17:58;2.85;;;1.67;;
56718;SDS011;42597;40.636;0.278;2023-08-07T05:20:24;5.63;;;2.10;;
56718;SDS011;42597;40.636;0.278;2023-08-07T05:22:49;6.35;;;2.03;;
56718;SDS011;42597;40.636;0.278;2023-08-07T05:25:15;3.55;;;1.27;;
56718;SDS011;42597;40.636;0.278;2023-08-07T05:27:42;6.60;;;2.00;;
56718;SDS011;42597;40.636;0.278;2023-08-07T05:30:08;3.53;;;1.60;;
56718;SDS011;42597;40.636;0.278;2023-08-07T05:32:34;7.55;;;2.08;;
56718;SDS011;42597;40.636;0.278;2023-08-07T05:35:03;3.42;;;1.48;;
56718;SDS011;42597;40.636;0.278;2023-08-07T05:37:30;3.47;;;1.40;;
56718;SDS011;42597;40.636;0.278;2023-08-07T05:39:56;4.93;;;1.60;;
56718;SDS011;42597;40.636;0.278;2023-08-07T05:42:22;4.43;;;1.67;;
56718;SDS011;42597;40.636;0.278;2023-08-07T05:44:48;5.85;;;1.90;;
56718;SDS011;42597;40.636;0.278;2023-08-07T05:47:13;6.78;;;2.20;;
56718;SDS011;42597;40.636;0.278;2023-08-07T05:49:39;5.75;;;1.88;;
56718;SDS011;42597;40.636;0.278;2023-08-07T05:52:05;5.68;;;1.95;;
56718;SDS011;42597;40.636;0.278;2023-08-07T05:54:31;3.63;;;1.58;;
56718;SDS011;42597;40.636;0.278;2023-08-07T05:56:56;6.15;;;1.75;;
56718;SDS011;42597;40.636;0.278;2023-08-07T05:59:22;4.95;;;1.95;;
56718;SDS011;42597;40.636;0.278;2023-08-07T06:01:47;3.85;;;1.55;;
56718;SDS011;42597;40.636;0.278;2023-08-07T06:04:13;4.57;;;1.90;;
56718;SDS011;42597;40.636;0.278;2023-08-07T06:06:39;6.22;;;2.08;;
56718;SDS011;42597;40.636;0.278;2023-08-07T06:09:05;6.47;;;1.48;;
56718;SDS011;42597;40.636;0.278;2023-08-07T06:11:31;14.63;;;2.25;;
56718;SDS011;42597;40.636;0.278;2023-08-07T06:13:57;9.20;;;2.15;;
56718;SDS011;42597;40.636;0.278;2023-08-07T06:16:22;19.33;;;2.85;;
56718;SDS011;42597;40.636;0.278;2023-08-07T06:18:48;26.90;;;3.65;;
56718;SDS011;42597;40.636;0.278;2023-08-07T06:21:13;18.83;;;2.13;;
56718;SDS011;42597;40.636;0.278;2023-08-07T06:23:39;10.85;;;2.47;;
56718;SDS011;42597;40.636;0.278;2023-08-07T06:26:04;5.18;;;1.80;;
56718;SDS011;42597;40.636;0.278;2023-08-07T06:28:31;13.70;;;2.20;;
56718;SDS011;42597;40.636;0.278;2023-08-07T06:31:02;14.32;;;1.85;;
56718;SDS011;42597;40.636;0.278;2023-08-07T06:33:28;24.17;;;4.63;;
56718;SDS011;42597;40.636;0.278;2023-08-07T06:35:54;28.02;;;3.28;;
56718;SDS011;42597;40.636;0.278;2023-08-07T06:38:19;34.92;;;3.88;;
56718;SDS011;42597;40.636;0.278;2023-08-07T06:40:45;9.70;;;2.90;;
56718;SDS011;42597;40.636;0.278;2023-08-07T06:43:10;14.90;;;3.05;;
56718;SDS011;42597;40.636;0.278;2023-08-07T06:45:36;14.98;;;2.70;;
56718;SDS011;42597;40.636;0.278;2023-08-07T06:48:01;14.93;;;2.45;;
56718;SDS011;42597;40.636;0.278;2023-08-07T06:50:27;12.93;;;3.08;;
56718;SDS011;42597;40.636;0.278;2023-08-07T06:52:52;13.80;;;3.17;;
56718;SDS011;42597;40.636;0.278;2023-08-07T06:55:19;12.00;;;2.92;;
56718;SDS011;42597;40.636;0.278;2023-08-07T06:57:45;11.02;;;2.78;;
56718;SDS011;42597;40.636;0.278;2023-08-07T07:00:10;9.35;;;2.22;;
56718;SDS011;42597;40.636;0.278;2023-08-07T07:02:36;4.78;;;2.42;;
56718;SDS011;42597;40.636;0.278;2023-08-07T07:05:02;5.95;;;1.95;;
56718;SDS011;42597;40.636;0.278;2023-08-07T07:07:28;3.92;;;1.70;;
56718;SDS011;42597;40.636;0.278;2023-08-07T07:09:53;4.68;;;1.83;;
56718;SDS011;42597;40.636;0.278;2023-08-07T07:12:19;4.57;;;1.85;;
56718;SDS011;42597;40.636;0.278;2023-08-07T07:14:44;4.45;;;1.60;;
56718;SDS011;42597;40.636;0.278;2023-08-07T07:17:10;3.28;;;1.38;;
56718;SDS011;42597;40.636;0.278;2023-08-07T07:19:35;5.28;;;1.80;;
56718;SDS011;42597;40.636;0.278;2023-08-07T07:22:01;4.63;;;1.92;;
56718;SDS011;42597;40.636;0.278;2023-08-07T07:24:26;8.52;;;2.17;;
56718;SDS011;42597;40.636;0.278;2023-08-07T07:26:52;6.72;;;1.92;;
56718;SDS011;42597;40.636;0.278;2023-08-07T07:29:17;3.78;;;1.42;;
56718;SDS011;42597;40.636;0.278;2023-08-07T07:31:43;5.03;;;1.48;;
56718;SDS011;42597;40.636;0.278;2023-08-07T07:34:09;3.63;;;1.40;;
56718;SDS011;42597;40.636;0.278;2023-08-07T07:36:34;5.22;;;2.13;;
56718;SDS011;42597;40.636;0.278;2023-08-07T07:39:00;5.43;;;1.50;;
56718;SDS011;42597;40.636;0.278;2023-08-07T07:41:25;9.30;;;1.42;;
56718;SDS011;42597;40.636;0.278;2023-08-07T07:43:51;5.72;;;1.77;;
56718;SDS011;42597;40.636;0.278;2023-08-07T07:46:17;7.13;;;1.77;;
56718;SDS011;42597;40.636;0.278;2023-08-07T07:48:42;5.03;;;2.50;;
56718;SDS011;42597;40.636;0.278;2023-08-07T07:51:08;5.13;;;1.63;;
56718;SDS011;42597;40.636;0.278;2023-08-07T07:53:33;3.50;;;1.55;;
56718;SDS011;42597;40.636;0.278;2023-08-07T07:55:59;6.10;;;2.00;;
56718;SDS011;42597;40.636;0.278;2023-08-07T07:58:24;5.15;;;1.65;;
56718;SDS011;42597;40.636;0.278;2023-08-07T08:00:50;3.60;;;1.83;;
56718;SDS011;42597;40.636;0.278;2023-08-07T08:03:19;8.32;;;2.50;;
56718;SDS011;42597;40.636;0.278;2023-08-07T08:05:46;5.53;;;1.95;;
56718;SDS011;42597;40.636;0.278;2023-08-07T08:10:39;5.22;;;2.33;;
56718;SDS011;42597;40.636;0.278;2023-08-07T08:13:05;6.32;;;2.35;;
56718;SDS011;42597;40.636;0.278;2023-08-07T08:15:33;9.35;;;1.63;;
56718;SDS011;42597;40.636;0.278;2023-08-07T08:17:59;6.60;;;1.70;;
56718;SDS011;42597;40.636;0.278;2023-08-07T08:20:24;6.95;;;1.92;;
56718;SDS011;42597;40.636;0.278;2023-08-07T08:22:50;11.98;;;2.30;;
56718;SDS011;42597;40.636;0.278;2023-08-07T08:25:16;3.75;;;2.05;;
56718;SDS011;42597;40.636;0.278;2023-08-07T08:27:42;3.13;;;1.77;;
56718;SDS011;42597;40.636;0.278;2023-08-07T08:30:08;6.75;;;1.73;;
56718;SDS011;42597;40.636;0.278;2023-08-07T08:32:34;5.72;;;1.85;;
56718;SDS011;42597;40.636;0.278;2023-08-07T08:35:00;12.82;;;2.75;;
56718;SDS011;42597;40.636;0.278;2023-08-07T08:37:25;6.88;;;2.42;;
56718;SDS011;42597;40.636;0.278;2023-08-07T08:39:51;2.40;;;1.30;;
56718;SDS011;42597;40.636;0.278;2023-08-07T08:42:17;10.80;;;2.63;;
56718;SDS011;42597;40.636;0.278;2023-08-07T08:44:46;5.90;;;1.67;;
56718;SDS011;42597;40.636;0.278;2023-08-07T08:47:17;5.43;;;2.15;;
56718;SDS011;42597;40.636;0.278;2023-08-07T08:49:46;5.68;;;1.90;;
56718;SDS011;42597;40.636;0.278;2023-08-07T08:52:14;5.20;;;1.60;;
56718;SDS011;42597;40.636;0.278;2023-08-07T08:54:41;5.40;;;1.85;;
56718;SDS011;42597;40.636;0.278;2023-08-07T08:57:11;7.72;;;2.53;;
56718;SDS011;42597;40.636;0.278;2023-08-07T08:59:37;4.80;;;1.75;;
56718;SDS011;42597;40.636;0.278;2023-08-07T09:02:04;5.28;;;2.08;;
56718;SDS011;42597;40.636;0.278;2023-08-07T09:04:30;5.57;;;1.80;;
56718;SDS011;42597;40.636;0.278;2023-08-07T09:06:55;10.48;;;2.55;;
56718;SDS011;42597;40.636;0.278;2023-08-07T09:09:21;3.28;;;1.55;;
56718;SDS011;42597;40.636;0.278;2023-08-07T09:11:48;4.53;;;1.75;;
56718;SDS011;42597;40.636;0.278;2023-08-07T09:14:16;4.53;;;2.17;;
56718;SDS011;42597;40.636;0.278;2023-08-07T09:16:48;5.20;;;1.88;;
56718;SDS011;42597;40.636;0.278;2023-08-07T09:19:15;7.78;;;2.15;;
56718;SDS011;42597;40.636;0.278;2023-08-07T09:21:40;5.10;;;1.92;;
56718;SDS011;42597;40.636;0.278;2023-08-07T09:24:06;5.45;;;2.03;;
56718;SDS011;42597;40.636;0.278;2023-08-07T09:26:32;5.43;;;2.08;;
56718;SDS011;42597;40.636;0.278;2023-08-07T09:28:59;3.65;;;1.75;;
56718;SDS011;42597;40.636;0.278;2023-08-07T09:31:24;6.90;;;2.42;;
56718;SDS011;42597;40.636;0.278;2023-08-07T09:33:51;5.97;;;1.80;;
56718;SDS011;42597;40.636;0.278;2023-08-07T09:36:17;3.95;;;1.70;;
56718;SDS011;42597;40.636;0.278;2023-08-07T09:38:43;6.00;;;2.13;;
56718;SDS011;42597;40.636;0.278;2023-08-07T09:41:08;6.60;;;2.30;;
56718;SDS011;42597;40.636;0.278;2023-08-07T09:43:34;5.97;;;2.58;;
56718;SDS011;42597;40.636;0.278;2023-08-07T09:46:02;5.75;;;2.33;;
56718;SDS011;42597;40.636;0.278;2023-08-07T09:48:31;8.32;;;2.35;;
56718;SDS011;42597;40.636;0.278;2023-08-07T09:51:01;3.97;;;1.80;;
56718;SDS011;42597;40.636;0.278;2023-08-07T09:53:29;6.82;;;2.45;;
56718;SDS011;42597;40.636;0.278;2023-08-07T09:55:55;4.10;;;2.10;;
56718;SDS011;42597;40.636;0.278;2023-08-07T09:58:21;8.07;;;2.13;;
56718;SDS011;42597;40.636;0.278;2023-08-07T10:00:47;8.80;;;1.92;;
56718;SDS011;42597;40.636;0.278;2023-08-07T10:05:42;5.40;;;2.33;;
56718;SDS011;42597;40.636;0.278;2023-08-07T10:08:09;4.28;;;2.10;;
56718;SDS011;42597;40.636;0.278;2023-08-07T10:10:35;7.82;;;2.10;;
56718;SDS011;42597;40.636;0.278;2023-08-07T10:13:02;3.88;;;1.98;;
56718;SDS011;42597;40.636;0.278;2023-08-07T10:15:29;5.45;;;1.60;;
56718;SDS011;42597;40.636;0.278;2023-08-07T10:17:56;4.05;;;2.03;;
56718;SDS011;42597;40.636;0.278;2023-08-07T10:20:22;8.18;;;2.25;;
56718;SDS011;42597;40.636;0.278;2023-08-07T10:22:52;7.95;;;2.50;;
56718;SDS011;42597;40.636;0.278;2023-08-07T10:25:19;6.30;;;2.05;;
56718;SDS011;42597;40.636;0.278;2023-08-07T10:27:46;6.00;;;2.10;;
56718;SDS011;42597;40.636;0.278;2023-08-07T10:30:14;10.57;;;2.33;;
56718;SDS011;42597;40.636;0.278;2023-08-07T10:32:43;6.22;;;2.13;;
56718;SDS011;42597;40.636;0.278;2023-08-07T10:35:09;4.95;;;1.77;;
56718;SDS011;42597;40.636;0.278;2023-08-07T10:40:08;12.35;;;2.85;;
56718;SDS011;42597;40.636;0.278;2023-08-07T10:45:26;4.35;;;1.55;;
56718;SDS011;42597;40.636;0.278;2023-08-07T10:48:02;9.07;;;2.97;;
56718;SDS011;42597;40.636;0.278;2023-08-07T10:50:50;6.97;;;2.60;;
56718;SDS011;42597;40.636;0.278;2023-08-07T10:53:39;14.65;;;3.40;;
56718;SDS011;42597;40.636;0.278;2023-08-07T10:56:09;8.38;;;3.85;;
56718;SDS011;42597;40.636;0.278;2023-08-07T10:58:36;10.20;;;4.13;;
56718;SDS011;42597;40.636;0.278;2023-08-07T11:01:19;8.80;;;3.00;;
56718;SDS011;42597;40.636;0.278;2023-08-07T11:06:23;10.10;;;3.20;;
56718;SDS011;42597;40.636;0.278;2023-08-07T11:08:53;7.32;;;3.05;;
56718;SDS011;42597;40.636;0.278;2023-08-07T11:11:19;11.52;;;2.63;;
56718;SDS011;42597;40.636;0.278;2023-08-07T11:13:45;8.32;;;2.60;;
56718;SDS011;42597;40.636;0.278;2023-08-07T11:16:11;7.65;;;2.75;;
56718;SDS011;42597;40.636;0.278;2023-08-07T11:18:37;9.60;;;2.78;;
56718;SDS011;42597;40.636;0.278;2023-08-07T11:21:06;10.23;;;2.92;;
56718;SDS011;42597;40.636;0.278;2023-08-07T11:23:33;10.15;;;3.13;;
56718;SDS011;42597;40.636;0.278;2023-08-07T11:26:00;11.95;;;3.72;;
56718;SDS011;42597;40.636;0.278;2023-08-07T11:28:28;14.77;;;2.70;;
56718;SDS011;42597;40.636;0.278;2023-08-07T11:30:54;8.90;;;3.10;;
56718;SDS011;42597;40.636;0.278;2023-08-07T11:33:21;7.47;;;2.20;;
56718;SDS011;42597;40.636;0.278;2023-08-07T11:35:49;9.75;;;3.95;;
56718;SDS011;42597;40.636;0.278;2023-08-07T11:38:28;9.38;;;3.33;;
56718;SDS011;42597;40.636;0.278;2023-08-07T11:40:58;15.55;;;3.45;;
56718;SDS011;42597;40.636;0.278;2023-08-07T11:43:26;5.38;;;2.17;;
56718;SDS011;42597;40.636;0.278;2023-08-07T11:48:19;8.80;;;2.65;;
56718;SDS011;42597;40.636;0.278;2023-08-07T11:50:48;15.90;;;2.97;;
56718;SDS011;42597;40.636;0.278;2023-08-07T11:53:14;7.80;;;2.80;;
56718;SDS011;42597;40.636;0.278;2023-08-07T11:55:46;5.50;;;2.15;;
56718;SDS011;42597;40.636;0.278;2023-08-07T11:58:13;13.82;;;2.40;;
56718;SDS011;42597;40.636;0.278;2023-08-07T12:00:41;8.00;;;2.58;;
56718;SDS011;42597;40.636;0.278;2023-08-07T12:03:30;10.35;;;2.80;;
56718;SDS011;42597;40.636;0.278;2023-08-07T12:05:57;10.60;;;2.77;;
56718;SDS011;42597;40.636;0.278;2023-08-07T12:08:30;7.18;;;2.03;;
56718;SDS011;42597;40.636;0.278;2023-08-07T12:10:58;13.55;;;3.05;;
56718;SDS011;42597;40.636;0.278;2023-08-07T12:13:29;8.43;;;2.53;;
56718;SDS011;42597;40.636;0.278;2023-08-07T12:15:56;10.50;;;2.60;;
56718;SDS011;42597;40.636;0.278;2023-08-07T12:18:23;7.85;;;3.00;;
56718;SDS011;42597;40.636;0.278;2023-08-07T12:20:52;4.20;;;2.13;;
56718;SDS011;42597;40.636;0.278;2023-08-07T12:23:25;10.95;;;2.78;;
56718;SDS011;42597;40.636;0.278;2023-08-07T12:25:51;10.57;;;2.42;;
56718;SDS011;42597;40.636;0.278;2023-08-07T12:28:17;11.27;;;2.95;;
56718;SDS011;42597;40.636;0.278;2023-08-07T12:30:46;5.80;;;2.33;;
56718;SDS011;42597;40.636;0.278;2023-08-07T12:33:13;10.80;;;2.13;;
56718;SDS011;42597;40.636;0.278;2023-08-07T12:35:39;9.80;;;2.47;;
56718;SDS011;42597;40.636;0.278;2023-08-07T12:38:06;7.20;;;2.78;;
56718;SDS011;42597;40.636;0.278;2023-08-07T12:40:32;10.20;;;2.88;;
56718;SDS011;42597;40.636;0.278;2023-08-07T12:43:01;8.07;;;2.50;;
56718;SDS011;42597;40.636;0.278;2023-08-07T12:45:26;9.23;;;2.92;;
56718;SDS011;42597;40.636;0.278;2023-08-07T12:47:52;10.30;;;3.00;;
56718;SDS011;42597;40.636;0.278;2023-08-07T12:50:17;4.82;;;1.75;;
56718;SDS011;42597;40.636;0.278;2023-08-07T12:52:43;10.32;;;2.30;;
56718;SDS011;42597;40.636;0.278;2023-08-07T12:55:09;7.95;;;3.08;;
56718;SDS011;42597;40.636;0.278;2023-08-07T12:57:35;11.30;;;3.53;;
56718;SDS011;42597;40.636;0.278;2023-08-07T13:00:00;13.27;;;2.88;;
56718;SDS011;42597;40.636;0.278;2023-08-07T13:02:26;8.40;;;2.25;;
56718;SDS011;42597;40.636;0.278;2023-08-07T13:04:51;10.20;;;3.00;;
56718;SDS011;42597;40.636;0.278;2023-08-07T13:07:18;8.85;;;2.75;;
56718;SDS011;42597;40.636;0.278;2023-08-07T13:09:43;7.15;;;2.53;;
56718;SDS011;42597;40.636;0.278;2023-08-07T13:12:09;7.10;;;1.85;;
56718;SDS011;42597;40.636;0.278;2023-08-07T13:14:34;7.88;;;2.50;;
56718;SDS011;42597;40.636;0.278;2023-08-07T13:17:00;11.25;;;3.08;;
56718;SDS011;42597;40.636;0.278;2023-08-07T13:19:26;7.85;;;2.75;;
56718;SDS011;42597;40.636;0.278;2023-08-07T13:21:51;16.92;;;3.80;;
56718;SDS011;42597;40.636;0.278;2023-08-07T13:24:17;5.82;;;2.20;;
56718;SDS011;42597;40.636;0.278;2023-08-07T13:26:42;10.52;;;3.03;;
56718;SDS011;42597;40.636;0.278;2023-08-07T13:29:11;8.30;;;2.90;;
56718;SDS011;42597;40.636;0.278;2023-08-07T13:31:37;11.73;;;2.70;;
56718;SDS011;42597;40.636;0.278;2023-08-07T13:34:03;10.02;;;2.85;;
56718;SDS011;42597;40.636;0.278;2023-08-07T13:36:33;10.40;;;2.50;;
56718;SDS011;42597;40.636;0.278;2023-08-07T13:38:59;9.93;;;2.90;;
56718;SDS011;42597;40.636;0.278;2023-08-07T13:41:25;10.48;;;2.72;;
56718;SDS011;42597;40.636;0.278;2023-08-07T13:43:51;12.68;;;2.67;;
56718;SDS011;42597;40.636;0.278;2023-08-07T13:46:17;17.70;;;3.35;;
56718;SDS011;42597;40.636;0.278;2023-08-07T13:48:44;8.70;;;3.08;;
56718;SDS011;42597;40.636;0.278;2023-08-07T13:51:10;8.13;;;2.47;;
56718;SDS011;42597;40.636;0.278;2023-08-07T13:53:36;15.50;;;3.00;;
56718;SDS011;42597;40.636;0.278;2023-08-07T13:56:01;7.30;;;3.08;;
56718;SDS011;42597;40.636;0.278;2023-08-07T13:58:27;12.00;;;2.63;;
56718;SDS011;42597;40.636;0.278;2023-08-07T14:00:53;9.52;;;2.22;;
56718;SDS011;42597;40.636;0.278;2023-08-07T14:03:19;13.02;;;3.38;;
56718;SDS011;42597;40.636;0.278;2023-08-07T14:05:45;6.57;;;2.05;;
56718;SDS011;42597;40.636;0.278;2023-08-07T14:08:11;18.02;;;3.83;;
56718;SDS011;42597;40.636;0.278;2023-08-07T14:10:36;10.38;;;3.25;;
56718;SDS011;42597;40.636;0.278;2023-08-07T14:13:04;16.25;;;4.05;;
56718;SDS011;42597;40.636;0.278;2023-08-07T14:15:30;5.53;;;2.80;;
56718;SDS011;42597;40.636;0.278;2023-08-07T14:17:55;9.73;;;2.28;;
56718;SDS011;42597;40.636;0.278;2023-08-07T14:20:22;11.07;;;2.45;;
56718;SDS011;42597;40.636;0.278;2023-08-07T14:22:48;7.40;;;2.60;;
56718;SDS011;42597;40.636;0.278;2023-08-07T14:25:14;13.05;;;2.67;;
56718;SDS011;42597;40.636;0.278;2023-08-07T14:27:40;14.50;;;3.47;;
56718;SDS011;42597;40.636;0.278;2023-08-07T14:30:05;9.40;;;2.63;;
56718;SDS011;42597;40.636;0.278;2023-08-07T14:32:31;13.02;;;3.28;;
56718;SDS011;42597;40.636;0.278;2023-08-07T14:34:57;9.77;;;3.65;;
56718;SDS011;42597;40.636;0.278;2023-08-07T14:37:22;12.00;;;3.22;;
56718;SDS011;42597;40.636;0.278;2023-08-07T14:39:48;7.53;;;2.72;;
56718;SDS011;42597;40.636;0.278;2023-08-07T14:42:13;9.07;;;3.30;;
56718;SDS011;42597;40.636;0.278;2023-08-07T14:44:39;12.07;;;3.15;;
56718;SDS011;42597;40.636;0.278;2023-08-07T14:47:05;9.98;;;2.92;;
56718;SDS011;42597;40.636;0.278;2023-08-07T14:49:30;13.70;;;3.33;;
56718;SDS011;42597;40.636;0.278;2023-08-07T14:51:57;7.28;;;2.33;;
56718;SDS011;42597;40.636;0.278;2023-08-07T14:54:23;13.68;;;3.42;;
56718;SDS011;42597;40.636;0.278;2023-08-07T14:56:48;11.98;;;3.17;;
56718;SDS011;42597;40.636;0.278;2023-08-07T14:59:14;9.23;;;3.47;;
56718;SDS011;42597;40.636;0.278;2023-08-07T15:01:40;13.32;;;2.92;;